sensor_id;sensor_type;location;lat;lon;timestamp;P1;P2;P0
65012;PMS5003;51715;39.432;-77.518;2023-03-25T00:01:05;10;8;
65012;PMS5003;51715;39.432;-77.518;2023-03-25T00:03:39;11;10;
65012;PMS5003;51715;39.432;-77.518;2023-03-25T00:06:09;9;9;
65012;PMS5003;51715;39.432;-77.518;2023-03-25T00:08:39;10;9;
65012;PMS5003;51715;39.432;-77.518;2023-03-25T00:11:08;12;9;
65012;PMS5003;51715;39.432;-77.518;2023-03-25T00:13:36;11;10;
65012;PMS5003;51715;39.432;-77.518;2023-03-25T00:16:06;12;10;
65012;PMS5003;51715;39.432;-77.518;2023-03-25T00:18:35;12;11;
65012;PMS5003;51715;39.432;-77.518;2023-03-25T00:21:04;10;9;
65012;PMS5003;51715;39.432;-77.518;2023-03-25T00:23:34;8;8;
65012;PMS5003;51715;39.432;-77.518;2023-03-25T00:26:05;9;9;
65012;PMS5003;51715;39.432;-77.518;2023-03-25T00:28:34;10;10;
65012;PMS5003;51715;39.432;-77.518;2023-03-25T00:31:04;11;8;
65012;PMS5003;51715;39.432;-77.518;2023-03-25T00:33:35;9;9;
65012;PMS5003;51715;39.432;-77.518;2023-03-25T00:36:03;14;12;
65012;PMS5003;51715;39.432;-77.518;2023-03-25T00:38:32;9;8;
65012;PMS5003;51715;39.432;-77.518;2023-03-25T00:41:07;6;6;
65012;PMS5003;51715;39.432;-77.518;2023-03-25T00:43:37;8;6;
65012;PMS5003;51715;39.432;-77.518;2023-03-25T00:46:06;12;7;
65012;PMS5003;51715;39.432;-77.518;2023-03-25T00:48:34;6;6;
65012;PMS5003;51715;39.432;-77.518;2023-03-25T00:51:03;8;8;
65012;PMS5003;51715;39.432;-77.518;2023-03-25T00:53:32;8;6;
65012;PMS5003;51715;39.432;-77.518;2023-03-25T00:56:00;8;7;
65012;PMS5003;51715;39.432;-77.518;2023-03-25T00:58:29;6;6;
65012;PMS5003;51715;39.432;-77.518;2023-03-25T01:00:58;6;6;
65012;PMS5003;51715;39.432;-77.518;2023-03-25T01:03:27;7;7;
65012;PMS5003;51715;39.432;-77.518;2023-03-25T01:05:56;5;5;
65012;PMS5003;51715;39.432;-77.518;2023-03-25T01:08:25;8;7;
65012;PMS5003;51715;39.432;-77.518;2023-03-25T01:10:53;7;7;
65012;PMS5003;51715;39.432;-77.518;2023-03-25T01:13:22;7;6;
65012;PMS5003;51715;39.432;-77.518;2023-03-25T01:15:50;3;3;
65012;PMS5003;51715;39.432;-77.518;2023-03-25T01:18:19;6;6;
65012;PMS5003;51715;39.432;-77.518;2023-03-25T01:20:47;4;4;
65012;PMS5003;51715;39.432;-77.518;2023-03-25T01:23:16;5;5;
65012;PMS5003;51715;39.432;-77.518;2023-03-25T01:25:45;4;4;
65012;PMS5003;51715;39.432;-77.518;2023-03-25T01:28:13;6;6;
65012;PMS5003;51715;39.432;-77.518;2023-03-25T01:30:42;7;5;
65012;PMS5003;51715;39.432;-77.518;2023-03-25T01:33:11;2;2;
65012;PMS5003;51715;39.432;-77.518;2023-03-25T01:35:40;6;5;
65012;PMS5003;51715;39.432;-77.518;2023-03-25T01:38:11;4;4;
65012;PMS5003;51715;39.432;-77.518;2023-03-25T01:40:39;6;6;
65012;PMS5003;51715;39.432;-77.518;2023-03-25T01:43:08;4;4;
65012;PMS5003;51715;39.432;-77.518;2023-03-25T01:45:37;5;5;
65012;PMS5003;51715;39.432;-77.518;2023-03-25T01:48:07;6;5;
65012;PMS5003;51715;39.432;-77.518;2023-03-25T01:50:40;8;7;
65012;PMS5003;51715;39.432;-77.518;2023-03-25T01:53:10;6;6;
65012;PMS5003;51715;39.432;-77.518;2023-03-25T01:55:40;5;5;
65012;PMS5003;51715;39.432;-77.518;2023-03-25T01:58:10;12;9;
65012;PMS5003;51715;39.432;-77.518;2023-03-25T02:00:43;6;6;
65012;PMS5003;51715;39.432;-77.518;2023-03-25T02:03:12;9;7;
65012;PMS5003;51715;39.432;-77.518;2023-03-25T02:05:45;7;6;
65012;PMS5003;51715;39.432;-77.518;2023-03-25T02:08:21;5;5;
65012;PMS5003;51715;39.432;-77.518;2023-03-25T02:10:51;5;5;
65012;PMS5003;51715;39.432;-77.518;2023-03-25T02:13:20;6;6;
65012;PMS5003;51715;39.432;-77.518;2023-03-25T02:15:54;7;6;
65012;PMS5003;51715;39.432;-77.518;2023-03-25T02:18:37;4;4;
65012;PMS5003;51715;39.432;-77.518;2023-03-25T02:23:06;11;8;
65012;PMS5003;51715;39.432;-77.518;2023-03-25T02:28:05;7;6;
65012;PMS5003;51715;39.432;-77.518;2023-03-25T02:30:46;6;5;
65012;PMS5003;51715;39.432;-77.518;2023-03-25T02:34:33;9;4;
65012;PMS5003;51715;39.432;-77.518;2023-03-25T02:37:23;4;4;
65012;PMS5003;51715;39.432;-77.518;2023-03-25T02:40:04;8;8;
65012;PMS5003;51715;39.432;-77.518;2023-03-25T02:42:41;4;4;
65012;PMS5003;51715;39.432;-77.518;2023-03-25T02:45:16;6;6;
65012;PMS5003;51715;39.432;-77.518;2023-03-25T02:47:52;4;4;
65012;PMS5003;51715;39.432;-77.518;2023-03-25T02:50:27;6;6;
65012;PMS5003;51715;39.432;-77.518;2023-03-25T02:53:00;7;7;
65012;PMS5003;51715;39.432;-77.518;2023-03-25T02:55:32;4;3;
65012;PMS5003;51715;39.432;-77.518;2023-03-25T02:58:02;7;6;
65012;PMS5003;51715;39.432;-77.518;2023-03-25T03:00:34;6;5;
65012;PMS5003;51715;39.432;-77.518;2023-03-25T03:03:05;7;7;
65012;PMS5003;51715;39.432;-77.518;2023-03-25T03:05:35;6;5;
65012;PMS5003;51715;39.432;-77.518;2023-03-25T03:08:16;5;5;
65012;PMS5003;51715;39.432;-77.518;2023-03-25T03:10:54;8;6;
65012;PMS5003;51715;39.432;-77.518;2023-03-25T03:13:35;7;7;
65012;PMS5003;51715;39.432;-77.518;2023-03-25T03:16:20;7;6;
65012;PMS5003;51715;39.432;-77.518;2023-03-25T03:18:54;5;5;
65012;PMS5003;51715;39.432;-77.518;2023-03-25T03:21:32;6;4;
65012;PMS5003;51715;39.432;-77.518;2023-03-25T03:24:08;3;3;
65012;PMS5003;51715;39.432;-77.518;2023-03-25T03:26:43;5;5;
65012;PMS5003;51715;39.432;-77.518;2023-03-25T03:29:18;7;6;
65012;PMS5003;51715;39.432;-77.518;2023-03-25T03:31:53;5;5;
65012;PMS5003;51715;39.432;-77.518;2023-03-25T03:34:30;5;5;
65012;PMS5003;51715;39.432;-77.518;2023-03-25T03:37:03;8;8;
65012;PMS5003;51715;39.432;-77.518;2023-03-25T03:39:35;8;7;
65012;PMS5003;51715;39.432;-77.518;2023-03-25T03:42:05;9;9;
65012;PMS5003;51715;39.432;-77.518;2023-03-25T03:44:42;8;8;
65012;PMS5003;51715;39.432;-77.518;2023-03-25T03:47:17;8;7;
65012;PMS5003;51715;39.432;-77.518;2023-03-25T03:49:49;6;6;
65012;PMS5003;51715;39.432;-77.518;2023-03-25T03:52:23;10;9;
65012;PMS5003;51715;39.432;-77.518;2023-03-25T03:54:55;8;5;
65012;PMS5003;51715;39.432;-77.518;2023-03-25T03:57:29;7;7;
65012;PMS5003;51715;39.432;-77.518;2023-03-25T04:00:06;7;6;
65012;PMS5003;51715;39.432;-77.518;2023-03-25T04:03:58;9;8;
65012;PMS5003;51715;39.432;-77.518;2023-03-25T04:06:30;7;7;
65012;PMS5003;51715;39.432;-77.518;2023-03-25T04:09:06;4;4;
65012;PMS5003;51715;39.432;-77.518;2023-03-25T04:11:41;5;5;
65012;PMS5003;51715;39.432;-77.518;2023-03-25T04:14:13;7;7;
65012;PMS5003;51715;39.432;-77.518;2023-03-25T04:16:42;8;6;
65012;PMS5003;51715;39.432;-77.518;2023-03-25T04:19:11;5;5;
65012;PMS5003;51715;39.432;-77.518;2023-03-25T04:21:39;7;5;
65012;PMS5003;51715;39.432;-77.518;2023-03-25T04:24:08;6;6;
65012;PMS5003;51715;39.432;-77.518;2023-03-25T04:26:35;10;7;
65012;PMS5003;51715;39.432;-77.518;2023-03-25T04:29:03;6;6;
65012;PMS5003;51715;39.432;-77.518;2023-03-25T04:31:32;6;5;
65012;PMS5003;51715;39.432;-77.518;2023-03-25T04:34:00;9;8;
65012;PMS5003;51715;39.432;-77.518;2023-03-25T04:36:29;8;8;
65012;PMS5003;51715;39.432;-77.518;2023-03-25T04:38:57;9;7;
65012;PMS5003;51715;39.432;-77.518;2023-03-25T04:41:25;6;6;
65012;PMS5003;51715;39.432;-77.518;2023-03-25T04:43:52;8;8;
65012;PMS5003;51715;39.432;-77.518;2023-03-25T04:46:21;8;8;
65012;PMS5003;51715;39.432;-77.518;2023-03-25T04:48:49;8;8;
65012;PMS5003;51715;39.432;-77.518;2023-03-25T04:51:18;12;10;
65012;PMS5003;51715;39.432;-77.518;2023-03-25T04:53:46;11;10;
65012;PMS5003;51715;39.432;-77.518;2023-03-25T04:56:14;9;9;
65012;PMS5003;51715;39.432;-77.518;2023-03-25T04:58:44;17;14;
65012;PMS5003;51715;39.432;-77.518;2023-03-25T05:01:18;8;6;
65012;PMS5003;51715;39.432;-77.518;2023-03-25T05:03:50;9;9;
65012;PMS5003;51715;39.432;-77.518;2023-03-25T05:06:18;9;9;
65012;PMS5003;51715;39.432;-77.518;2023-03-25T05:08:47;12;10;
65012;PMS5003;51715;39.432;-77.518;2023-03-25T05:11:16;12;12;
65012;PMS5003;51715;39.432;-77.518;2023-03-25T05:13:44;10;10;
65012;PMS5003;51715;39.432;-77.518;2023-03-25T05:16:13;12;10;
65012;PMS5003;51715;39.432;-77.518;2023-03-25T05:18:41;15;15;
65012;PMS5003;51715;39.432;-77.518;2023-03-25T05:21:09;8;8;
65012;PMS5003;51715;39.432;-77.518;2023-03-25T05:23:37;10;10;
65012;PMS5003;51715;39.432;-77.518;2023-03-25T05:26:05;8;8;
65012;PMS5003;51715;39.432;-77.518;2023-03-25T05:28:34;15;15;
65012;PMS5003;51715;39.432;-77.518;2023-03-25T05:31:03;17;12;
65012;PMS5003;51715;39.432;-77.518;2023-03-25T05:33:31;9;9;
65012;PMS5003;51715;39.432;-77.518;2023-03-25T05:35:59;10;10;
65012;PMS5003;51715;39.432;-77.518;2023-03-25T05:38:28;15;13;
65012;PMS5003;51715;39.432;-77.518;2023-03-25T05:40:56;13;13;
65012;PMS5003;51715;39.432;-77.518;2023-03-25T05:43:25;14;12;
65012;PMS5003;51715;39.432;-77.518;2023-03-25T05:45:53;14;14;
65012;PMS5003;51715;39.432;-77.518;2023-03-25T05:48:21;14;13;
65012;PMS5003;51715;39.432;-77.518;2023-03-25T05:50:49;13;13;
65012;PMS5003;51715;39.432;-77.518;2023-03-25T05:53:17;12;12;
65012;PMS5003;51715;39.432;-77.518;2023-03-25T05:55:45;11;11;
65012;PMS5003;51715;39.432;-77.518;2023-03-25T05:58:14;13;13;
65012;PMS5003;51715;39.432;-77.518;2023-03-25T06:00:42;11;11;
65012;PMS5003;51715;39.432;-77.518;2023-03-25T06:03:10;14;12;
65012;PMS5003;51715;39.432;-77.518;2023-03-25T06:05:39;10;10;
65012;PMS5003;51715;39.432;-77.518;2023-03-25T06:08:08;10;10;
65012;PMS5003;51715;39.432;-77.518;2023-03-25T06:10:37;15;13;
65012;PMS5003;51715;39.432;-77.518;2023-03-25T06:13:06;14;13;
65012;PMS5003;51715;39.432;-77.518;2023-03-25T06:15:34;16;14;
65012;PMS5003;51715;39.432;-77.518;2023-03-25T06:18:02;17;14;
65012;PMS5003;51715;39.432;-77.518;2023-03-25T06:20:31;22;19;
65012;PMS5003;51715;39.432;-77.518;2023-03-25T06:22:59;14;14;
65012;PMS5003;51715;39.432;-77.518;2023-03-25T06:25:27;13;13;
65012;PMS5003;51715;39.432;-77.518;2023-03-25T06:27:56;11;11;
65012;PMS5003;51715;39.432;-77.518;2023-03-25T06:30:24;17;14;
65012;PMS5003;51715;39.432;-77.518;2023-03-25T06:32:52;15;13;
65012;PMS5003;51715;39.432;-77.518;2023-03-25T06:35:21;13;13;
65012;PMS5003;51715;39.432;-77.518;2023-03-25T06:37:49;14;13;
65012;PMS5003;51715;39.432;-77.518;2023-03-25T06:40:17;12;12;
65012;PMS5003;51715;39.432;-77.518;2023-03-25T06:42:46;12;11;
65012;PMS5003;51715;39.432;-77.518;2023-03-25T06:45:15;20;19;
65012;PMS5003;51715;39.432;-77.518;2023-03-25T06:47:43;14;13;
65012;PMS5003;51715;39.432;-77.518;2023-03-25T06:50:12;14;13;
65012;PMS5003;51715;39.432;-77.518;2023-03-25T06:52:40;19;16;
65012;PMS5003;51715;39.432;-77.518;2023-03-25T06:55:09;21;20;
65012;PMS5003;51715;39.432;-77.518;2023-03-25T06:57:37;19;19;
65012;PMS5003;51715;39.432;-77.518;2023-03-25T07:00:05;22;17;
65012;PMS5003;51715;39.432;-77.518;2023-03-25T07:02:35;21;20;
65012;PMS5003;51715;39.432;-77.518;2023-03-25T07:05:03;23;18;
65012;PMS5003;51715;39.432;-77.518;2023-03-25T07:07:31;24;22;
65012;PMS5003;51715;39.432;-77.518;2023-03-25T07:09:59;27;21;
65012;PMS5003;51715;39.432;-77.518;2023-03-25T07:12:28;25;23;
65012;PMS5003;51715;39.432;-77.518;2023-03-25T07:14:56;24;23;
65012;PMS5003;51715;39.432;-77.518;2023-03-25T07:17:25;27;22;
65012;PMS5003;51715;39.432;-77.518;2023-03-25T07:19:53;28;24;
65012;PMS5003;51715;39.432;-77.518;2023-03-25T07:22:22;27;25;
65012;PMS5003;51715;39.432;-77.518;2023-03-25T07:24:49;30;25;
65012;PMS5003;51715;39.432;-77.518;2023-03-25T07:27:18;22;22;
65012;PMS5003;51715;39.432;-77.518;2023-03-25T07:29:46;22;21;
65012;PMS5003;51715;39.432;-77.518;2023-03-25T07:32:14;33;27;
65012;PMS5003;51715;39.432;-77.518;2023-03-25T07:34:42;31;26;
65012;PMS5003;51715;39.432;-77.518;2023-03-25T07:37:10;28;26;
65012;PMS5003;51715;39.432;-77.518;2023-03-25T07:39:39;28;27;
65012;PMS5003;51715;39.432;-77.518;2023-03-25T07:42:06;30;26;
65012;PMS5003;51715;39.432;-77.518;2023-03-25T07:44:35;23;21;
65012;PMS5003;51715;39.432;-77.518;2023-03-25T07:47:03;25;25;
65012;PMS5003;51715;39.432;-77.518;2023-03-25T07:49:31;33;28;
65012;PMS5003;51715;39.432;-77.518;2023-03-25T07:52:00;32;28;
65012;PMS5003;51715;39.432;-77.518;2023-03-25T07:54:29;26;23;
65012;PMS5003;51715;39.432;-77.518;2023-03-25T07:56:57;29;28;
65012;PMS5003;51715;39.432;-77.518;2023-03-25T07:59:25;26;25;
65012;PMS5003;51715;39.432;-77.518;2023-03-25T08:01:54;25;24;
65012;PMS5003;51715;39.432;-77.518;2023-03-25T08:04:21;30;24;
65012;PMS5003;51715;39.432;-77.518;2023-03-25T08:06:50;32;27;
65012;PMS5003;51715;39.432;-77.518;2023-03-25T08:09:18;20;20;
65012;PMS5003;51715;39.432;-77.518;2023-03-25T08:11:47;19;18;
65012;PMS5003;51715;39.432;-77.518;2023-03-25T08:14:15;20;17;
65012;PMS5003;51715;39.432;-77.518;2023-03-25T08:16:43;21;18;
65012;PMS5003;51715;39.432;-77.518;2023-03-25T08:19:12;23;21;
65012;PMS5003;51715;39.432;-77.518;2023-03-25T08:21:40;20;17;
65012;PMS5003;51715;39.432;-77.518;2023-03-25T08:24:08;21;18;
65012;PMS5003;51715;39.432;-77.518;2023-03-25T08:26:36;17;16;
65012;PMS5003;51715;39.432;-77.518;2023-03-25T08:29:04;19;19;
65012;PMS5003;51715;39.432;-77.518;2023-03-25T08:31:33;16;16;
65012;PMS5003;51715;39.432;-77.518;2023-03-25T08:34:01;17;15;
65012;PMS5003;51715;39.432;-77.518;2023-03-25T08:36:31;16;15;
65012;PMS5003;51715;39.432;-77.518;2023-03-25T08:38:59;21;17;
65012;PMS5003;51715;39.432;-77.518;2023-03-25T08:41:27;21;17;
65012;PMS5003;51715;39.432;-77.518;2023-03-25T08:43:55;24;20;
65012;PMS5003;51715;39.432;-77.518;2023-03-25T08:46:24;23;20;
65012;PMS5003;51715;39.432;-77.518;2023-03-25T08:48:52;15;15;
65012;PMS5003;51715;39.432;-77.518;2023-03-25T08:51:20;21;19;
65012;PMS5003;51715;39.432;-77.518;2023-03-25T08:53:49;18;16;
65012;PMS5003;51715;39.432;-77.518;2023-03-25T08:56:17;21;21;
65012;PMS5003;51715;39.432;-77.518;2023-03-25T08:58:45;17;17;
65012;PMS5003;51715;39.432;-77.518;2023-03-25T09:01:14;24;21;
65012;PMS5003;51715;39.432;-77.518;2023-03-25T09:03:42;19;18;
65012;PMS5003;51715;39.432;-77.518;2023-03-25T09:06:10;21;20;
65012;PMS5003;51715;39.432;-77.518;2023-03-25T09:08:38;22;19;
65012;PMS5003;51715;39.432;-77.518;2023-03-25T09:11:07;26;24;
65012;PMS5003;51715;39.432;-77.518;2023-03-25T09:13:36;26;21;
65012;PMS5003;51715;39.432;-77.518;2023-03-25T09:16:05;24;23;
65012;PMS5003;51715;39.432;-77.518;2023-03-25T09:18:34;23;23;
65012;PMS5003;51715;39.432;-77.518;2023-03-25T09:21:02;20;19;
65012;PMS5003;51715;39.432;-77.518;2023-03-25T09:23:31;19;19;
65012;PMS5003;51715;39.432;-77.518;2023-03-25T09:26:00;23;22;
65012;PMS5003;51715;39.432;-77.518;2023-03-25T09:28:29;23;20;
65012;PMS5003;51715;39.432;-77.518;2023-03-25T09:30:58;24;21;
65012;PMS5003;51715;39.432;-77.518;2023-03-25T09:33:25;24;23;
65012;PMS5003;51715;39.432;-77.518;2023-03-25T09:35:54;21;17;
65012;PMS5003;51715;39.432;-77.518;2023-03-25T09:38:22;19;16;
65012;PMS5003;51715;39.432;-77.518;2023-03-25T09:40:51;16;13;
65012;PMS5003;51715;39.432;-77.518;2023-03-25T09:43:23;13;13;
65012;PMS5003;51715;39.432;-77.518;2023-03-25T09:46:02;16;15;
65012;PMS5003;51715;39.432;-77.518;2023-03-25T09:48:33;16;14;
65012;PMS5003;51715;39.432;-77.518;2023-03-25T09:51:05;15;13;
65012;PMS5003;51715;39.432;-77.518;2023-03-25T09:53:41;20;20;
65012;PMS5003;51715;39.432;-77.518;2023-03-25T09:56:13;21;15;
65012;PMS5003;51715;39.432;-77.518;2023-03-25T09:58:45;20;17;
65012;PMS5003;51715;39.432;-77.518;2023-03-25T10:01:22;20;16;
65012;PMS5003;51715;39.432;-77.518;2023-03-25T10:04:03;20;19;
65012;PMS5003;51715;39.432;-77.518;2023-03-25T10:06:45;16;16;
65012;PMS5003;51715;39.432;-77.518;2023-03-25T10:09:28;22;18;
65012;PMS5003;51715;39.432;-77.518;2023-03-25T10:12:10;17;16;
65012;PMS5003;51715;39.432;-77.518;2023-03-25T10:14:53;16;10;
65012;PMS5003;51715;39.432;-77.518;2023-03-25T10:17:29;19;13;
65012;PMS5003;51715;39.432;-77.518;2023-03-25T10:20:07;10;10;
65012;PMS5003;51715;39.432;-77.518;2023-03-25T10:22:46;12;9;
65012;PMS5003;51715;39.432;-77.518;2023-03-25T10:25:26;14;14;
65012;PMS5003;51715;39.432;-77.518;2023-03-25T10:27:58;15;13;
65012;PMS5003;51715;39.432;-77.518;2023-03-25T10:30:30;17;15;
65012;PMS5003;51715;39.432;-77.518;2023-03-25T10:33:02;14;13;
65012;PMS5003;51715;39.432;-77.518;2023-03-25T10:35:35;15;15;
65012;PMS5003;51715;39.432;-77.518;2023-03-25T10:38:08;15;14;
65012;PMS5003;51715;39.432;-77.518;2023-03-25T10:40:41;13;13;
65012;PMS5003;51715;39.432;-77.518;2023-03-25T10:43:13;10;10;
65012;PMS5003;51715;39.432;-77.518;2023-03-25T10:45:48;14;14;
65012;PMS5003;51715;39.432;-77.518;2023-03-25T10:48:20;18;14;
65012;PMS5003;51715;39.432;-77.518;2023-03-25T10:50:51;13;13;
65012;PMS5003;51715;39.432;-77.518;2023-03-25T10:53:28;16;13;
65012;PMS5003;51715;39.432;-77.518;2023-03-25T10:55:57;10;10;
65012;PMS5003;51715;39.432;-77.518;2023-03-25T10:58:30;12;11;
65012;PMS5003;51715;39.432;-77.518;2023-03-25T11:00:59;15;15;
65012;PMS5003;51715;39.432;-77.518;2023-03-25T11:03:38;13;11;
65012;PMS5003;51715;39.432;-77.518;2023-03-25T11:06:13;14;14;
65012;PMS5003;51715;39.432;-77.518;2023-03-25T11:09:10;11;11;
65012;PMS5003;51715;39.432;-77.518;2023-03-25T11:11:41;15;13;
65012;PMS5003;51715;39.432;-77.518;2023-03-25T11:14:10;17;16;
65012;PMS5003;51715;39.432;-77.518;2023-03-25T11:16:41;14;14;
65012;PMS5003;51715;39.432;-77.518;2023-03-25T11:19:15;13;12;
65012;PMS5003;51715;39.432;-77.518;2023-03-25T11:21:47;14;13;
65012;PMS5003;51715;39.432;-77.518;2023-03-25T11:24:20;13;13;
65012;PMS5003;51715;39.432;-77.518;2023-03-25T11:26:53;12;11;
65012;PMS5003;51715;39.432;-77.518;2023-03-25T11:29:23;18;13;
65012;PMS5003;51715;39.432;-77.518;2023-03-25T11:31:55;14;11;
65012;PMS5003;51715;39.432;-77.518;2023-03-25T11:34:31;14;14;
65012;PMS5003;51715;39.432;-77.518;2023-03-25T11:37:01;12;12;
65012;PMS5003;51715;39.432;-77.518;2023-03-25T11:39:34;8;8;
65012;PMS5003;51715;39.432;-77.518;2023-03-25T11:42:11;12;12;
65012;PMS5003;51715;39.432;-77.518;2023-03-25T11:44:48;16;14;
65012;PMS5003;51715;39.432;-77.518;2023-03-25T11:47:19;9;9;
65012;PMS5003;51715;39.432;-77.518;2023-03-25T11:49:51;13;11;
65012;PMS5003;51715;39.432;-77.518;2023-03-25T11:52:21;10;10;
65012;PMS5003;51715;39.432;-77.518;2023-03-25T11:54:54;12;12;
65012;PMS5003;51715;39.432;-77.518;2023-03-25T11:57:23;13;10;
65012;PMS5003;51715;39.432;-77.518;2023-03-25T12:00:05;10;10;
65012;PMS5003;51715;39.432;-77.518;2023-03-25T12:02:45;11;9;
65012;PMS5003;51715;39.432;-77.518;2023-03-25T12:05:14;18;13;
65012;PMS5003;51715;39.432;-77.518;2023-03-25T12:07:47;10;10;
65012;PMS5003;51715;39.432;-77.518;2023-03-25T12:10:31;13;13;
65012;PMS5003;51715;39.432;-77.518;2023-03-25T12:13:15;16;13;
65012;PMS5003;51715;39.432;-77.518;2023-03-25T12:15:53;12;11;
65012;PMS5003;51715;39.432;-77.518;2023-03-25T12:18:36;10;10;
65012;PMS5003;51715;39.432;-77.518;2023-03-25T12:21:21;11;9;
65012;PMS5003;51715;39.432;-77.518;2023-03-25T12:24:06;16;14;
65012;PMS5003;51715;39.432;-77.518;2023-03-25T12:26:46;11;11;
65012;PMS5003;51715;39.432;-77.518;2023-03-25T12:29:27;12;11;
65012;PMS5003;51715;39.432;-77.518;2023-03-25T12:32:06;19;17;
65012;PMS5003;51715;39.432;-77.518;2023-03-25T12:34:47;15;15;
65012;PMS5003;51715;39.432;-77.518;2023-03-25T12:37:26;15;15;
65012;PMS5003;51715;39.432;-77.518;2023-03-25T12:40:13;12;9;
65012;PMS5003;51715;39.432;-77.518;2023-03-25T12:42:54;10;10;
65012;PMS5003;51715;39.432;-77.518;2023-03-25T12:45:35;17;15;
65012;PMS5003;51715;39.432;-77.518;2023-03-25T12:48:13;15;12;
65012;PMS5003;51715;39.432;-77.518;2023-03-25T12:50:53;20;17;
65012;PMS5003;51715;39.432;-77.518;2023-03-25T12:53:31;17;15;
65012;PMS5003;51715;39.432;-77.518;2023-03-25T12:56:13;13;12;
65012;PMS5003;51715;39.432;-77.518;2023-03-25T12:58:56;12;12;
65012;PMS5003;51715;39.432;-77.518;2023-03-25T13:01:41;14;13;
65012;PMS5003;51715;39.432;-77.518;2023-03-25T13:04:22;17;16;
65012;PMS5003;51715;39.432;-77.518;2023-03-25T13:07:02;21;18;
65012;PMS5003;51715;39.432;-77.518;2023-03-25T13:09:34;20;15;
65012;PMS5003;51715;39.432;-77.518;2023-03-25T13:12:10;16;16;
65012;PMS5003;51715;39.432;-77.518;2023-03-25T13:14:49;15;13;
65012;PMS5003;51715;39.432;-77.518;2023-03-25T13:17:34;18;17;
65012;PMS5003;51715;39.432;-77.518;2023-03-25T13:20:08;16;15;
65012;PMS5003;51715;39.432;-77.518;2023-03-25T13:22:38;11;10;
65012;PMS5003;51715;39.432;-77.518;2023-03-25T13:25:15;16;14;
65012;PMS5003;51715;39.432;-77.518;2023-03-25T13:27:47;17;16;
65012;PMS5003;51715;39.432;-77.518;2023-03-25T13:30:20;12;12;
65012;PMS5003;51715;39.432;-77.518;2023-03-25T13:32:54;14;12;
65012;PMS5003;51715;39.432;-77.518;2023-03-25T13:35:27;15;12;
65012;PMS5003;51715;39.432;-77.518;2023-03-25T13:38:08;13;13;
65012;PMS5003;51715;39.432;-77.518;2023-03-25T13:40:44;16;14;
65012;PMS5003;51715;39.432;-77.518;2023-03-25T13:43:22;12;11;
65012;PMS5003;51715;39.432;-77.518;2023-03-25T13:46:05;14;11;
65012;PMS5003;51715;39.432;-77.518;2023-03-25T13:48:39;9;8;
65012;PMS5003;51715;39.432;-77.518;2023-03-25T13:51:13;12;10;
65012;PMS5003;51715;39.432;-77.518;2023-03-25T13:53:42;12;11;
65012;PMS5003;51715;39.432;-77.518;2023-03-25T13:56:29;11;11;
65012;PMS5003;51715;39.432;-77.518;2023-03-25T13:59:13;11;11;
65012;PMS5003;51715;39.432;-77.518;2023-03-25T14:02:01;12;12;
65012;PMS5003;51715;39.432;-77.518;2023-03-25T14:04:47;10;9;
65012;PMS5003;51715;39.432;-77.518;2023-03-25T14:07:44;10;10;
65012;PMS5003;51715;39.432;-77.518;2023-03-25T14:10:26;15;12;
65012;PMS5003;51715;39.432;-77.518;2023-03-25T14:13:16;12;11;
65012;PMS5003;51715;39.432;-77.518;2023-03-25T14:15:51;9;9;
65012;PMS5003;51715;39.432;-77.518;2023-03-25T14:18:25;12;10;
65012;PMS5003;51715;39.432;-77.518;2023-03-25T14:20:54;12;9;
65012;PMS5003;51715;39.432;-77.518;2023-03-25T14:23:22;12;11;
65012;PMS5003;51715;39.432;-77.518;2023-03-25T14:25:57;11;9;
65012;PMS5003;51715;39.432;-77.518;2023-03-25T14:28:35;12;11;
65012;PMS5003;51715;39.432;-77.518;2023-03-25T14:31:06;17;15;
65012;PMS5003;51715;39.432;-77.518;2023-03-25T14:34:48;12;10;
65012;PMS5003;51715;39.432;-77.518;2023-03-25T14:37:33;14;11;
65012;PMS5003;51715;39.432;-77.518;2023-03-25T14:40:43;8;8;
65012;PMS5003;51715;39.432;-77.518;2023-03-25T14:40:47;9;9;
65012;PMS5003;51715;39.432;-77.518;2023-03-25T14:43:18;14;12;
65012;PMS5003;51715;39.432;-77.518;2023-03-25T14:45:51;13;12;
65012;PMS5003;51715;39.432;-77.518;2023-03-25T14:48:29;8;8;
65012;PMS5003;51715;39.432;-77.518;2023-03-25T14:51:13;12;11;
65012;PMS5003;51715;39.432;-77.518;2023-03-25T14:53:49;11;11;
65012;PMS5003;51715;39.432;-77.518;2023-03-25T14:56:23;15;9;
65012;PMS5003;51715;39.432;-77.518;2023-03-25T14:58:58;14;13;
65012;PMS5003;51715;39.432;-77.518;2023-03-25T15:01:44;14;12;
65012;PMS5003;51715;39.432;-77.518;2023-03-25T15:04:15;16;16;
65012;PMS5003;51715;39.432;-77.518;2023-03-25T15:06:53;12;9;
65012;PMS5003;51715;39.432;-77.518;2023-03-25T15:09:23;12;11;
65012;PMS5003;51715;39.432;-77.518;2023-03-25T15:11:54;12;11;
65012;PMS5003;51715;39.432;-77.518;2023-03-25T15:14:25;9;9;
65012;PMS5003;51715;39.432;-77.518;2023-03-25T15:16:57;14;11;
65012;PMS5003;51715;39.432;-77.518;2023-03-25T15:20:27;13;12;
65012;PMS5003;51715;39.432;-77.518;2023-03-25T15:23:29;13;12;
65012;PMS5003;51715;39.432;-77.518;2023-03-25T15:26:08;12;9;
65012;PMS5003;51715;39.432;-77.518;2023-03-25T15:28:44;18;15;
65012;PMS5003;51715;39.432;-77.518;2023-03-25T15:31:27;11;10;
65012;PMS5003;51715;39.432;-77.518;2023-03-25T15:34:16;15;13;
65012;PMS5003;51715;39.432;-77.518;2023-03-25T15:37:01;12;10;
65012;PMS5003;51715;39.432;-77.518;2023-03-25T15:39:50;13;13;
65012;PMS5003;51715;39.432;-77.518;2023-03-25T15:42:37;16;15;
65012;PMS5003;51715;39.432;-77.518;2023-03-25T15:45:37;13;12;
65012;PMS5003;51715;39.432;-77.518;2023-03-25T15:48:30;11;11;
65012;PMS5003;51715;39.432;-77.518;2023-03-25T15:51:24;12;11;
65012;PMS5003;51715;39.432;-77.518;2023-03-25T15:54:13;12;11;
65012;PMS5003;51715;39.432;-77.518;2023-03-25T15:56:51;14;11;
65012;PMS5003;51715;39.432;-77.518;2023-03-25T15:59:27;15;13;
65012;PMS5003;51715;39.432;-77.518;2023-03-25T16:02:02;15;13;
65012;PMS5003;51715;39.432;-77.518;2023-03-25T16:04:39;10;8;
65012;PMS5003;51715;39.432;-77.518;2023-03-25T16:07:13;14;14;
65012;PMS5003;51715;39.432;-77.518;2023-03-25T16:09:46;12;11;
65012;PMS5003;51715;39.432;-77.518;2023-03-25T16:12:18;14;14;
65012;PMS5003;51715;39.432;-77.518;2023-03-25T16:14:48;14;12;
65012;PMS5003;51715;39.432;-77.518;2023-03-25T16:17:17;12;10;
65012;PMS5003;51715;39.432;-77.518;2023-03-25T16:19:53;12;12;
65012;PMS5003;51715;39.432;-77.518;2023-03-25T16:22:24;17;12;
65012;PMS5003;51715;39.432;-77.518;2023-03-25T16:24:55;15;15;
65012;PMS5003;51715;39.432;-77.518;2023-03-25T16:27:28;14;12;
65012;PMS5003;51715;39.432;-77.518;2023-03-25T16:30:00;13;11;
65012;PMS5003;51715;39.432;-77.518;2023-03-25T16:32:34;13;13;
65012;PMS5003;51715;39.432;-77.518;2023-03-25T16:35:02;10;10;
65012;PMS5003;51715;39.432;-77.518;2023-03-25T16:37:30;20;17;
65012;PMS5003;51715;39.432;-77.518;2023-03-25T16:39:58;16;15;